Tina-c — 2APY2 — position and weather

sailwx.info

Track history (hours):
 
Tides and Currents Weather Stations Pressure Air Temp Water Temp Dewpoint Dewpoint Depression Visibility Wind Speed Wind Dir Waves Ship Positions

Tina-c

Last reported at 2016-Dec-10 06:32 UTC. Time now 2016-Dec-10 06:56 UTC.
Position N 43°24' E 005°01'.

Length 99 m; draft 5.9 m.

Type: Cargo ship. MMSI: 235061987.

Date/timePositionNaut miles runAvg speedWind from/ knotsBaromVisibWave heightAir tempDewpointWater temp
2016-Dec-10 06:32N 43°24' E 005°01'0 0.0
2016-Dec-10 05:32N 43°24' E 005°01'0 0.0
2016-Dec-10 04:32N 43°24' E 005°01'0 0.0
2016-Dec-10 03:32N 43°24' E 005°01'0 0.0
2016-Dec-10 02:26N 43°24' E 005°01'0 0.0
2016-Dec-10 01:32N 43°24' E 005°01'0 0.0
2016-Dec-10 00:32N 43°24' E 005°01'0 0.0
2016-Dec-09 23:32N 43°24' E 005°01'0 0.0
2016-Dec-09 22:32N 43°24' E 005°01'0 0.0
2016-Dec-09 21:32N 43°24' E 005°01'0 0.0
2016-Dec-09 20:32N 43°24' E 005°01'0 0.0
2016-Dec-09 19:32N 43°24' E 005°01'0 0.0
2016-Dec-09 18:32N 43°24' E 005°01'0 0.0
2016-Dec-09 17:32N 43°24' E 005°01'0 0.0
2016-Dec-09 16:32N 43°24' E 005°01'0 0.0
2016-Dec-09 15:32N 43°24' E 005°01'0 0.0
2016-Dec-09 14:32N 43°24' E 005°01'0 0.0
2016-Dec-09 13:29N 43°24' E 005°01'0 0.0
2016-Dec-09 12:32N 43°24' E 005°01'0 0.0
2016-Dec-09 11:32N 43°24' E 005°01'0 0.0
2016-Dec-09 10:32N 43°24' E 005°01'0 0.0
2016-Dec-09 09:32N 43°24' E 005°01'0 0.0
2016-Dec-09 08:32N 43°24' E 005°01'0 0.0
2016-Dec-09 07:32N 43°24' E 005°01'1 1.2
2016-Dec-09 06:33N 43°24' E 004°60'10 9.1
2016-Dec-09 05:30N 43°15' E 005°01'9310.1
2016-Dec-08 20:19N 42°02' E 003°43'910.2
2016-Dec-08 19:25N 41°55' E 003°35'3910.0
2016-Dec-08 15:33N 41°24' E 003°04'1310.4
2016-Dec-08 14:16N 41°13' E 002°54'810.4
2016-Dec-08 13:32N 41°07' E 002°48'1010.0
2016-Dec-08 12:33N 40°59' E 002°40'10 9.8
2016-Dec-08 11:33N 40°51' E 002°32'1010.2
2016-Dec-08 10:33N 40°43' E 002°24'1010.4
2016-Dec-08 09:33N 40°34' E 002°16'10 9.7
2016-Dec-08 08:33N 40°27' E 002°08'10 9.9
2016-Dec-08 07:33N 40°19' E 002°01'1010.1
2016-Dec-08 06:33N 40°11' E 001°53'1010.1
2016-Dec-08 05:33N 40°03' E 001°45'1010.1
2016-Dec-08 04:33N 39°54' E 001°37'1010.1
2016-Dec-08 03:33N 39°46' E 001°29'156 9.8
2016-Dec-07 11:30N 37°38' W 000°26'  
2016-Nov-30 09:10N 42°24' E 010°34'  
Track history (hours):
 
Tides and Currents Weather Stations Pressure Air Temp Water Temp Dewpoint Dewpoint Depression Visibility Wind Speed Wind Dir Waves Ship Positions

Tina-c

Last reported at 2016-Dec-10 06:32 UTC. Time now 2016-Dec-10 06:56 UTC.
Position N 43°24' E 005°01'.

Length 99 m; draft 5.9 m.

Type: Cargo ship. MMSI: 235061987.

Date/timePositionNaut miles runAvg speedWind from/ knotsBaromVisibWave heightAir tempDewpointWater temp
2016-Dec-10 06:32N 43°24' E 005°01'0 0.0
2016-Dec-10 05:32N 43°24' E 005°01'0 0.0
2016-Dec-10 04:32N 43°24' E 005°01'0 0.0
2016-Dec-10 03:32N 43°24' E 005°01'0 0.0
2016-Dec-10 02:26N 43°24' E 005°01'0 0.0
2016-Dec-10 01:32N 43°24' E 005°01'0 0.0
2016-Dec-10 00:32N 43°24' E 005°01'0 0.0
2016-Dec-09 23:32N 43°24' E 005°01'0 0.0
2016-Dec-09 22:32N 43°24' E 005°01'0 0.0
2016-Dec-09 21:32N 43°24' E 005°01'0 0.0
2016-Dec-09 20:32N 43°24' E 005°01'0 0.0
2016-Dec-09 19:32N 43°24' E 005°01'0 0.0
2016-Dec-09 18:32N 43°24' E 005°01'0 0.0
2016-Dec-09 17:32N 43°24' E 005°01'0 0.0
2016-Dec-09 16:32N 43°24' E 005°01'0 0.0
2016-Dec-09 15:32N 43°24' E 005°01'0 0.0
2016-Dec-09 14:32N 43°24' E 005°01'0 0.0
2016-Dec-09 13:29N 43°24' E 005°01'0 0.0
2016-Dec-09 12:32N 43°24' E 005°01'0 0.0
2016-Dec-09 11:32N 43°24' E 005°01'0 0.0
2016-Dec-09 10:32N 43°24' E 005°01'0 0.0
2016-Dec-09 09:32N 43°24' E 005°01'0 0.0
2016-Dec-09 08:32N 43°24' E 005°01'0 0.0
2016-Dec-09 07:32N 43°24' E 005°01'1 1.2
2016-Dec-09 06:33N 43°24' E 004°60'10 9.1
2016-Dec-09 05:30N 43°15' E 005°01'9310.1
2016-Dec-08 20:19N 42°02' E 003°43'910.2
2016-Dec-08 19:25N 41°55' E 003°35'3910.0
2016-Dec-08 15:33N 41°24' E 003°04'1310.4
2016-Dec-08 14:16N 41°13' E 002°54'810.4
2016-Dec-08 13:32N 41°07' E 002°48'1010.0
2016-Dec-08 12:33N 40°59' E 002°40'10 9.8
2016-Dec-08 11:33N 40°51' E 002°32'1010.2
2016-Dec-08 10:33N 40°43' E 002°24'1010.4
2016-Dec-08 09:33N 40°34' E 002°16'10 9.7
2016-Dec-08 08:33N 40°27' E 002°08'10 9.9
2016-Dec-08 07:33N 40°19' E 002°01'1010.1
2016-Dec-08 06:33N 40°11' E 001°53'1010.1
2016-Dec-08 05:33N 40°03' E 001°45'1010.1
2016-Dec-08 04:33N 39°54' E 001°37'1010.1
2016-Dec-08 03:33N 39°46' E 001°29'156 9.8
2016-Dec-07 11:30N 37°38' W 000°26'  
2016-Nov-30 09:10N 42°24' E 010°34'  

Dump ship's entire track history